Time;durP1;ratioP1;P1;durP2;ratioP2;P2;SDS_P1;SDS_P2;PMS_P1;PMS_P2;Temp;Humidity;BMP_temperature;BMP_pressure;BME280_temperature;BME280_humidity;BME280_pressure;Samples;Min_cycle;Max_cycle;Signal;HPM_P1;HPM_P2
2022/11/29 00:01:20;;;;;;;;;3.25;3.25;;;;;10.75;68.04;100910.44;5017404;28;45449;-64
2022/11/29 00:03:45;;;;;;;;;3.67;3.67;;;;;10.68;67.59;100895.09;5036746;28;45558;-62
2022/11/29 00:06:16;;;;;;;;;7.00;5.00;;;;;10.83;68.28;100921.34;5039205;28;45479;-64
2022/11/29 00:08:42;;;;;;;;;3.33;3.33;;;;;10.77;67.97;100903.34;5036372;28;45339;-63
2022/11/29 00:11:10;;;;;;;;;3.00;3.00;;;;;10.81;67.67;100915.06;5039144;28;45618;-66
2022/11/29 00:13:36;;;;;;;;;5.33;3.00;;;;;10.77;68.14;100915.81;5042318;28;45502;-65
2022/11/29 00:16:06;;;;;;;;;6.00;4.33;;;;;10.78;67.96;100923.88;5037583;28;46333;-62
2022/11/29 00:18:32;;;;;;;;;4.67;2.00;;;;;10.82;68.31;100916.84;5029230;28;45506;-63
2022/11/29 00:20:57;;;;;;;;;5.67;5.67;;;;;10.82;68.18;100919.53;5023450;28;45439;-65
2022/11/29 00:23:23;;;;;;;;;3.50;3.50;;;;;10.76;67.76;100917.59;5040433;28;45399;-67
2022/11/29 00:25:48;;;;;;;;;3.00;3.00;;;;;10.82;68.23;100917.78;5049839;28;45528;-64
2022/11/29 00:28:17;;;;;;;;;4.00;3.33;;;;;10.67;68.23;100909.31;5051781;28;45061;-63
2022/11/29 00:30:42;;;;;;;;;5.00;4.00;;;;;10.73;67.60;100914.84;5051260;28;45006;-63
2022/11/29 00:33:07;;;;;;;;;3.00;3.00;;;;;10.75;68.01;100938.94;5050422;28;45149;-67
2022/11/29 00:35:33;;;;;;;;;5.00;3.33;;;;;10.64;68.54;100909.22;5051095;28;45130;-63
2022/11/29 00:37:58;;;;;;;;;5.33;5.00;;;;;10.68;68.42;100929.84;5050605;28;45173;-62
2022/11/29 00:40:24;;;;;;;;;3.67;3.00;;;;;10.38;68.24;100874.66;5050874;28;44915;-67
2022/11/29 00:42:49;;;;;;;;;3.00;3.00;;;;;10.65;68.54;100921.72;5051503;28;44966;-64
2022/11/29 00:45:18;;;;;;;;;2.00;2.00;;;;;10.64;68.47;100911.91;5051835;28;45495;-67
2022/11/29 00:47:43;;;;;;;;;3.67;2.00;;;;;10.63;68.29;100918.13;5034024;28;45181;-67
2022/11/29 00:50:09;;;;;;;;;7.00;3.33;;;;;10.74;68.32;100935.38;5050840;28;45001;-67
2022/11/29 00:52:34;;;;;;;;;6.00;3.00;;;;;10.72;68.48;100936.19;5048642;28;45431;-64
2022/11/29 00:55:00;;;;;;;;;4.67;3.00;;;;;10.62;68.87;100930.56;5049782;28;45621;-65
2022/11/29 00:57:48;;;;;;;;;2.00;2.00;;;;;10.61;68.51;100939.44;5049752;28;45992;-67
2022/11/29 01:00:14;;;;;;;;;4.00;3.33;;;;;10.49;69.51;100909.69;5046787;28;45165;-62
2022/11/29 01:02:39;;;;;;;;;5.33;4.00;;;;;10.55;69.68;100923.22;5050665;28;45222;-62
2022/11/29 01:05:05;;;;;;;;;2.33;2.33;;;;;10.61;68.88;100938.53;5049252;28;53727;-64
2022/11/29 01:07:30;;;;;;;;;10.33;4.00;;;;;10.54;68.87;100918.72;5030708;28;45117;-65
2022/11/29 01:09:55;;;;;;;;;4.00;4.00;;;;;10.65;69.12;100932.41;5050438;28;45350;-65
2022/11/29 01:12:21;;;;;;;;;5.33;4.00;;;;;10.59;68.88;100914.47;5054242;28;45023;-64
2022/11/29 01:14:46;;;;;;;;;4.00;3.00;;;;;10.64;68.35;100915.50;5035130;28;46832;-63
2022/11/29 01:17:15;;;;;;;;;2.67;2.67;;;;;10.66;68.41;100918.22;5055059;28;44896;-69
2022/11/29 01:19:40;;;;;;;;;4.00;4.00;;;;;10.73;68.40;100930.88;5052639;28;45411;-66
2022/11/29 01:22:06;;;;;;;;;2.00;2.00;;;;;10.61;68.51;100914.47;5052544;28;45570;-63
2022/11/29 01:24:31;;;;;;;;;4.67;4.67;;;;;10.66;68.93;100942.25;5048057;28;45543;-66
2022/11/29 01:26:56;;;;;;;;;4.67;4.67;;;;;10.63;68.82;100934.16;5053327;28;53041;-64
2022/11/29 01:29:22;;;;;;;;;5.00;3.67;;;;;10.63;69.16;100947.50;5053057;28;44884;-64
2022/11/29 01:31:47;;;;;;;;;6.00;3.00;;;;;10.59;68.79;100933.16;5052847;28;45666;-65
2022/11/29 01:34:12;;;;;;;;;2.33;2.33;;;;;10.62;68.95;100937.66;5033640;28;46284;-68
2022/11/29 01:36:38;;;;;;;;;3.00;3.00;;;;;10.71;68.64;100953.97;5052187;28;44963;-65
2022/11/29 01:39:04;;;;;;;;;3.33;3.00;;;;;10.73;68.56;100951.34;5019316;28;45027;-65
2022/11/29 01:41:33;;;;;;;;;4.00;2.67;;;;;10.63;68.59;100935.03;5051219;28;45128;-66
2022/11/29 01:44:00;;;;;;;;;3.67;1.33;;;;;10.75;68.50;100960.31;5051028;28;45855;-62
2022/11/29 01:46:28;;;;;;;;;5.00;2.00;;;;;10.45;68.45;100899.78;5050439;28;45090;-63
2022/11/29 01:48:59;;;;;;;;;5.33;4.67;;;;;10.73;69.03;100952.25;5053364;28;45014;-63
2022/11/29 01:51:26;;;;;;;;;5.00;3.00;;;;;10.59;68.60;100909.13;5051687;28;45175;-63
2022/11/29 01:53:53;;;;;;;;;6.33;3.00;;;;;10.86;67.89;100950.84;5049258;28;45712;-63
2022/11/29 01:56:19;;;;;;;;;3.67;3.67;;;;;10.95;67.77;100967.13;5052391;28;45540;-67
2022/11/29 01:58:45;;;;;;;;;5.00;2.33;;;;;10.95;68.02;100964.44;5052677;28;44997;-67
2022/11/29 02:01:11;;;;;;;;;3.00;3.00;;;;;10.98;68.00;100974.34;5052072;28;45212;-64
2022/11/29 02:03:36;;;;;;;;;4.33;2.00;;;;;10.98;68.30;100985.03;5051233;28;45729;-62
2022/11/29 02:06:03;;;;;;;;;4.33;2.33;;;;;11.00;67.86;100978.84;5034021;28;44977;-64
2022/11/29 02:08:35;;;;;;;;;4.00;4.00;;;;;10.88;67.78;100967.81;5050614;28;45674;-66
2022/11/29 02:11:32;;;;;;;;;4.33;3.33;;;;;10.94;68.46;100973.34;5051356;28;45167;-64
2022/11/29 02:14:32;;;;;;;;;6.00;5.00;;;;;11.00;67.93;100985.97;5052629;28;45761;-63
2022/11/29 02:17:00;;;;;;;;;5.67;2.33;;;;;11.05;67.31;100987.00;5051832;28;46118;-68
2022/11/29 02:19:33;;;;;;;;;3.00;3.00;;;;;10.97;67.22;100981.47;5052068;28;45215;-68
2022/11/29 02:22:10;;;;;;;;;5.00;2.00;;;;;11.02;67.30;100993.19;5031816;28;45484;-70
2022/11/29 02:25:02;;;;;;;;;6.00;4.00;;;;;11.05;67.84;100997.69;5024909;28;46610;-66
2022/11/29 02:27:43;;;;;;;;;3.33;3.00;;;;;11.04;67.56;100987.88;5051265;28;45013;-70
2022/11/29 02:30:15;;;;;;;;;7.00;4.00;;;;;11.08;67.42;100989.78;5053007;28;45114;-63
2022/11/29 02:33:22;;;;;;;;;4.00;3.00;;;;;11.08;67.24;100992.44;5051901;28;45136;-66
2022/11/29 02:36:02;;;;;;;;;5.33;4.00;;;;;11.13;67.34;100998.81;5044345;28;45400;-63
2022/11/29 02:38:28;;;;;;;;;3.00;3.00;;;;;11.18;67.47;100991.84;5050810;28;45453;-66
2022/11/29 02:41:05;;;;;;;;;7.00;5.00;;;;;11.21;66.81;100994.59;5051917;28;45065;-66
2022/11/29 02:43:56;;;;;;;;;3.00;3.00;;;;;11.24;67.03;101001.81;5052151;28;45115;-62
2022/11/29 02:46:31;;;;;;;;;6.00;4.00;;;;;11.29;66.93;100991.25;5031846;28;47044;-66
2022/11/29 02:49:11;;;;;;;;;8.00;3.67;;;;;11.33;66.41;100999.38;5050615;28;45370;-63
2022/11/29 02:51:46;;;;;;;;;3.00;3.00;;;;;11.25;65.77;100983.13;5049277;28;45081;-69
2022/11/29 02:54:40;;;;;;;;;4.00;4.00;;;;;11.36;66.36;100999.47;5048495;28;44918;-65
2022/11/29 02:57:18;;;;;;;;;2.00;2.00;;;;;11.38;66.51;100994.16;5051442;28;45535;-65
2022/11/29 03:00:01;;;;;;;;;4.00;4.00;;;;;11.36;66.01;101001.25;5050060;28;45152;-63
2022/11/29 03:02:53;;;;;;;;;5.00;3.67;;;;;11.30;66.53;101001.06;5048894;28;44947;-68
2022/11/29 03:05:43;;;;;;;;;3.00;3.00;;;;;11.29;66.55;101002.84;5026252;28;45084;-64
2022/11/29 03:08:14;;;;;;;;;4.33;3.00;;;;;11.32;66.33;101000.25;5049881;28;45207;-66
2022/11/29 03:10:57;;;;;;;;;4.00;4.00;;;;;11.34;65.93;101011.91;5048456;28;45296;-67
2022/11/29 03:14:03;;;;;;;;;5.00;5.00;;;;;11.29;66.62;100994.81;5051008;28;45362;-63
2022/11/29 03:16:36;;;;;;;;;6.67;5.00;;;;;11.29;66.14;101007.28;5052928;28;45030;-62
2022/11/29 03:19:23;;;;;;;;;6.00;4.00;;;;;11.36;65.87;101015.50;5052272;28;45781;-63
2022/11/29 03:22:30;;;;;;;;;1.00;1.00;;;;;11.34;65.82;101005.66;5049810;28;44991;-63
2022/11/29 03:25:01;;;;;;;;;9.33;4.00;;;;;11.35;66.10;101024.41;4999708;28;45233;-63
2022/11/29 03:27:51;;;;;;;;;4.00;4.00;;;;;11.21;66.33;101005.28;5032458;28;45303;-61
2022/11/29 03:30:18;;;;;;;;;4.00;4.00;;;;;10.83;66.21;100943.63;5052214;28;45524;-63
2022/11/29 03:32:54;;;;;;;;;4.33;4.00;;;;;11.30;66.72;101019.78;5050817;28;45344;-64
2022/11/29 03:35:23;;;;;;;;;4.00;4.00;;;;;11.29;66.53;101029.59;5051846;28;45289;-63
2022/11/29 03:38:22;;;;;;;;;5.00;4.00;;;;;11.29;66.30;101026.91;5052128;28;45129;-63
2022/11/29 03:41:26;;;;;;;;;6.00;3.33;;;;;11.30;66.75;101026.06;5051287;28;45359;-64
2022/11/29 03:43:55;;;;;;;;;3.67;3.67;;;;;11.35;65.61;101034.19;5021509;28;44943;-64
2022/11/29 03:46:33;;;;;;;;;8.00;4.00;;;;;11.23;66.14;101016.94;5051443;28;45062;-63
2022/11/29 03:49:06;;;;;;;;;1.00;0.00;;;;;11.35;65.87;101036.88;5049460;28;45232;-65
2022/11/29 03:52:03;;;;;;;;;9.00;4.33;;;;;11.39;66.50;101039.69;5051237;28;45923;-62
2022/11/29 03:54:55;;;;;;;;;6.33;4.33;;;;;11.38;65.72;101042.31;5049173;28;45029;-65
2022/11/29 03:57:30;;;;;;;;;8.00;7.00;;;;;11.19;65.91;101023.06;5050289;28;45024;-64
2022/11/29 03:59:58;;;;;;;;;7.67;5.67;;;;;11.34;66.02;101049.34;5033678;28;45188;-65
2022/11/29 04:02:29;;;;;;;;;5.67;4.67;;;;;11.34;65.71;101052.03;5050721;28;45598;-65
2022/11/29 04:05:30;;;;;;;;;8.33;5.00;;;;;11.39;65.67;101047.69;5032942;28;45246;-65
2022/11/29 04:08:14;;;;;;;;;7.33;7.33;;;;;11.40;66.12;101051.28;5051420;28;44986;-65
2022/11/29 04:11:08;;;;;;;;;8.00;6.67;;;;;11.39;65.48;101055.72;5047384;28;44987;-62
2022/11/29 04:14:04;;;;;;;;;8.00;6.33;;;;;11.36;65.90;101052.06;5026456;28;46782;-66
2022/11/29 04:16:58;;;;;;;;;7.33;6.33;;;;;11.39;66.09;101061.06;5050515;28;45080;-63
2022/11/29 04:19:51;;;;;;;;;6.33;5.67;;;;;11.35;66.15;101068.97;5042686;22;45306;-62
2022/11/29 04:22:16;;;;;;;;;6.00;4.00;;;;;11.33;65.90;101070.69;5020598;28;45006;-61
2022/11/29 04:25:02;;;;;;;;;10.00;8.00;;;;;11.33;65.92;101063.56;5013593;28;46434;-62
2022/11/29 04:27:33;;;;;;;;;7.33;7.00;;;;;11.41;66.38;101071.81;5041980;28;45343;-61
2022/11/29 04:30:05;;;;;;;;;10.33;8.00;;;;;11.44;65.45;101079.94;5028358;28;45487;-62
2022/11/29 04:33:06;;;;;;;;;9.00;7.75;;;;;11.41;66.16;101077.16;5019178;28;45112;-62
2022/11/29 04:35:48;;;;;;;;;8.33;6.67;;;;;11.38;65.89;101082.44;4988062;28;45753;-62
2022/11/29 04:38:51;;;;;;;;;8.33;7.00;;;;;11.38;66.38;101087.78;5009399;28;45420;-63
2022/11/29 04:41:36;;;;;;;;;5.75;5.75;;;;;11.35;66.36;101080.59;5009482;28;44998;-62
2022/11/29 04:44:16;;;;;;;;;10.50;8.00;;;;;11.46;65.69;101096.03;5019359;28;45015;-63
2022/11/29 04:46:56;;;;;;;;;10.67;8.33;;;;;11.39;66.04;101089.59;5018403;28;45450;-63
2022/11/29 04:49:55;;;;;;;;;8.67;7.33;;;;;11.46;65.51;101096.03;5032121;28;45233;-62
2022/11/29 04:52:20;;;;;;;;;11.75;7.75;;;;;11.45;66.20;101095.13;5011563;28;45164;-62
2022/11/29 04:54:57;;;;;;;;;9.50;8.00;;;;;11.42;65.79;101097.72;5023456;28;45375;-65
2022/11/29 04:57:36;;;;;;;;;10.00;8.00;;;;;11.38;66.05;101096.75;5011598;28;45570;-60
2022/11/29 05:00:09;;;;;;;;;11.67;8.33;;;;;11.40;65.74;101105.69;5012181;28;44860;-64
2022/11/29 05:03:07;;;;;;;;;9.00;9.00;;;;;11.41;66.10;101101.25;5012319;28;45340;-60
2022/11/29 05:05:44;;;;;;;;;7.67;7.67;;;;;11.42;65.86;101105.75;4988256;28;45042;-62
2022/11/29 05:08:34;;;;;;;;;11.67;7.67;;;;;11.43;65.63;101110.22;5025060;28;45244;-62
2022/11/29 05:11:32;;;;;;;;;5.33;4.00;;;;;11.41;65.78;101109.28;5023702;28;44942;-62
2022/11/29 05:14:27;;;;;;;;;10.67;8.33;;;;;11.40;66.16;101119.09;5011996;28;45282;-62
2022/11/29 05:17:17;;;;;;;;;19.00;9.00;;;;;11.41;65.59;101120.88;5014365;28;45035;-61
2022/11/29 05:20:07;;;;;;;;;9.67;8.33;;;;;11.41;65.59;101122.66;5025436;28;46262;-63
2022/11/29 05:23:10;;;;;;;;;12.33;7.67;;;;;11.40;66.34;101124.44;5025079;28;45312;-63
2022/11/29 05:25:38;;;;;;;;;9.00;7.33;;;;;11.42;65.27;101127.16;5026226;28;45198;-63
2022/11/29 05:28:23;;;;;;;;;8.00;8.00;;;;;11.41;65.51;101125.31;5013801;28;45215;-68
2022/11/29 05:30:48;;;;;;;;;13.75;9.25;;;;;11.41;65.59;101128.00;5013927;28;45598;-63
2022/11/29 05:33:44;;;;;;;;;10.67;6.00;;;;;11.43;65.94;101131.63;5014247;28;44918;-62
2022/11/29 05:36:18;;;;;;;;;16.25;12.00;;;;;11.44;65.55;101137.03;5011561;28;45216;-64
2022/11/29 05:39:29;;;;;;;;;9.00;6.00;;;;;11.45;65.65;101137.94;5014092;28;45080;-62
2022/11/29 05:42:35;;;;;;;;;14.67;9.67;;;;;11.44;65.45;101150.41;5018236;28;46204;-62
2022/11/29 05:45:33;;;;;;;;;8.67;7.67;;;;;11.45;65.91;101151.31;5013652;28;45022;-62
2022/11/29 05:48:23;;;;;;;;;8.67;8.67;;;;;11.45;65.83;101154.00;5027244;28;44990;-65
2022/11/29 05:51:14;;;;;;;;;14.25;10.00;;;;;11.38;66.11;101142.22;5013728;28;45148;-65
2022/11/29 05:53:50;;;;;;;;;9.75;8.00;;;;;11.46;66.22;101154.91;5013540;28;46046;-61
2022/11/29 05:56:47;;;;;;;;;15.75;9.00;;;;;11.44;65.69;101162.88;5026648;28;44946;-61
2022/11/29 05:59:18;;;;;;;;;12.50;10.00;;;;;11.34;65.68;101159.03;5012874;28;45100;-62
2022/11/29 06:01:54;;;;;;;;;13.50;11.25;;;;;11.42;65.54;101167.28;5019318;28;45220;-61
2022/11/29 06:04:23;;;;;;;;;17.50;17.25;;;;;11.42;66.41;101164.59;5017929;28;46126;-63
2022/11/29 06:07:15;;;;;;;;;19.50;13.75;;;;;11.42;65.62;101173.53;5025485;28;45185;-64
2022/11/29 06:09:49;;;;;;;;;11.00;11.00;;;;;11.38;65.19;101162.69;5012532;28;44976;-62
2022/11/29 06:12:22;;;;;;;;;12.25;7.75;;;;;11.32;65.52;101163.44;5021050;28;46455;-61
2022/11/29 06:15:16;;;;;;;;;15.25;12.00;;;;;11.34;65.69;101172.41;5029235;28;46965;-67
2022/11/29 06:18:12;;;;;;;;;13.67;9.00;;;;;11.31;65.23;101174.97;5024884;28;45048;-67
2022/11/29 06:21:12;;;;;;;;;31.00;26.25;;;;;11.30;65.96;101182.94;5029552;28;45377;-68
2022/11/29 06:23:58;;;;;;;;;21.00;17.00;;;;;11.30;66.08;101181.22;5030250;28;45172;-65
2022/11/29 06:26:58;;;;;;;;;16.50;13.25;;;;;11.23;66.92;101188.09;5013085;28;45132;-65
2022/11/29 06:29:57;;;;;;;;;17.75;16.25;;;;;11.24;65.60;101192.59;5013530;28;44933;-65
2022/11/29 06:32:39;;;;;;;;;19.25;15.00;;;;;11.21;66.95;101189.84;5023889;28;45215;-66
2022/11/29 06:35:24;;;;;;;;;23.25;21.00;;;;;11.19;67.09;101199.59;5019667;28;45218;-62
2022/11/29 06:37:54;;;;;;;;;20.00;16.75;;;;;10.80;66.92;101137.75;5003474;28;46119;-62
2022/11/29 06:40:20;;;;;;;;;16.25;11.25;;;;;11.04;66.75;101189.31;5015674;28;45234;-62
2022/11/29 06:42:45;;;;;;;;;15.25;13.25;;;;;11.04;66.72;101199.13;5013187;28;44926;-68
2022/11/29 06:45:13;;;;;;;;;12.00;12.00;;;;;10.92;67.17;101188.91;5015021;28;45086;-65
2022/11/29 06:47:45;;;;;;;;;15.50;15.00;;;;;11.01;67.21;101215.06;5021038;28;45234;-64
2022/11/29 06:50:16;;;;;;;;;37.25;30.75;;;;;10.99;67.58;101215.00;5023954;28;45176;-67
2022/11/29 06:53:09;;;;;;;;;19.25;19.25;;;;;10.50;66.89;101134.13;5026618;28;45104;-63
2022/11/29 06:55:57;;;;;;;;;16.75;14.75;;;;;10.93;67.29;101217.47;5032298;28;45294;-61
2022/11/29 06:58:41;;;;;;;;;16.00;13.50;;;;;10.84;67.42;101203.81;5027765;28;46603;-65
2022/11/29 07:01:24;;;;;;;;;21.25;16.50;;;;;10.81;67.86;101215.31;5019136;28;45000;-62
2022/11/29 07:04:17;;;;;;;;;24.00;17.25;;;;;10.87;67.30;101226.22;5023250;28;45329;-65
2022/11/29 07:06:43;;;;;;;;;21.50;18.75;;;;;10.83;67.44;101221.59;5023571;28;44993;-63
2022/11/29 07:09:16;;;;;;;;;18.00;15.00;;;;;10.88;67.26;101229.78;5017291;28;47300;-61
2022/11/29 07:11:43;;;;;;;;;20.00;16.75;;;;;10.88;67.52;101232.47;5013544;28;45247;-62
2022/11/29 07:14:09;;;;;;;;;16.25;16.25;;;;;10.86;67.62;101244.88;5012222;28;45367;-66
2022/11/29 07:16:49;;;;;;;;;23.25;17.25;;;;;10.83;67.38;101244.78;5016627;28;45035;-66
2022/11/29 07:19:17;;;;;;;;;45.50;36.00;;;;;10.83;67.51;101240.31;5017607;28;45383;-63
2022/11/29 07:22:01;;;;;;;;;28.50;28.50;;;;;10.84;67.59;101250.16;5015480;28;44994;-65
2022/11/29 07:24:52;;;;;;;;;43.50;36.00;;;;;10.83;67.45;101245.66;5019334;28;45458;-66
2022/11/29 07:27:24;;;;;;;;;24.25;19.50;;;;;10.81;67.27;101250.06;5019447;28;45510;-64
2022/11/29 07:30:11;;;;;;;;;44.00;33.25;;;;;10.79;68.11;101249.09;5011716;28;45238;-66
2022/11/29 07:33:15;;;;;;;;;28.25;23.25;;;;;10.79;67.79;101259.81;5010978;28;44973;-66
2022/11/29 07:35:52;;;;;;;;;20.25;18.50;;;;;10.75;67.18;101256.97;5003698;28;45703;-65
2022/11/29 07:38:36;;;;;;;;;25.50;21.50;;;;;10.74;67.59;101265.81;5011577;28;45084;-66
2022/11/29 07:41:07;;;;;;;;;20.25;17.00;;;;;10.72;67.82;101259.53;5008968;28;45246;-64
2022/11/29 07:43:49;;;;;;;;;22.25;18.75;;;;;10.60;67.54;101244.00;5016858;28;45238;-66
2022/11/29 07:46:15;;;;;;;;;20.50;19.50;;;;;10.63;67.82;101253.00;5030385;28;45147;-63
2022/11/29 07:48:41;;;;;;;;;27.00;22.75;;;;;10.63;67.84;101260.13;5023753;28;45033;-64
2022/11/29 07:51:06;;;;;;;;;27.50;19.50;;;;;10.57;67.73;101250.13;5010097;28;45629;-65
2022/11/29 07:53:35;;;;;;;;;30.75;27.75;;;;;10.54;67.67;101262.47;5010248;28;44864;-63
2022/11/29 07:56:00;;;;;;;;;38.75;32.00;;;;;10.63;67.94;101281.50;5009457;28;45125;-66
2022/11/29 07:58:26;;;;;;;;;30.25;26.00;;;;;10.52;67.98;101262.41;5009893;28;45003;-66
2022/11/29 08:00:51;;;;;;;;;26.75;20.50;;;;;10.67;67.42;101283.41;5010691;28;45865;-65
2022/11/29 08:03:16;;;;;;;;;29.75;27.50;;;;;10.58;67.38;101261.75;5011497;28;45131;-66
2022/11/29 08:05:45;;;;;;;;;24.25;21.00;;;;;10.70;66.81;101286.19;5017548;28;45411;-66
2022/11/29 08:08:10;;;;;;;;;25.25;22.50;;;;;10.70;67.92;101294.22;5015308;28;45485;-63
2022/11/29 08:10:37;;;;;;;;;24.75;21.25;;;;;10.67;66.62;101286.09;5010442;28;46066;-67
2022/11/29 08:13:02;;;;;;;;;31.25;25.25;;;;;10.64;66.52;101276.22;5009443;28;44943;-65
2022/11/29 08:15:28;;;;;;;;;25.75;23.25;;;;;10.67;66.27;101289.69;5010664;28;44979;-63
2022/11/29 08:17:53;;;;;;;;;27.00;24.00;;;;;10.61;66.27;101278.78;5026666;28;44904;-64
2022/11/29 08:20:19;;;;;;;;;29.25;22.00;;;;;10.64;66.63;101283.31;5013905;28;45776;-63
2022/11/29 08:22:44;;;;;;;;;15.00;10.25;;;;;10.61;66.27;101289.47;5034505;28;45438;-63
2022/11/29 08:25:10;;;;;;;;;29.50;27.75;;;;;10.70;66.46;101300.47;5019004;28;44964;-62
2022/11/29 08:27:36;;;;;;;;;33.50;28.75;;;;;10.65;66.03;101301.16;5012498;28;44998;-64
2022/11/29 08:30:04;;;;;;;;;34.00;26.50;;;;;10.67;65.79;101299.44;5011893;28;46163;-62
2022/11/29 08:32:29;;;;;;;;;34.50;32.50;;;;;10.65;65.86;101311.84;5025533;28;45055;-64
2022/11/29 08:34:54;;;;;;;;;39.50;30.25;;;;;10.48;65.84;101297.91;5018419;28;45206;-62
2022/11/29 08:37:20;;;;;;;;;49.75;39.50;;;;;10.51;66.09;101309.59;5018685;28;45085;-63
2022/11/29 08:39:45;;;;;;;;;31.75;27.00;;;;;10.56;65.58;101324.88;5013583;28;45198;-62
2022/11/29 08:42:10;;;;;;;;;33.00;22.75;;;;;10.33;66.16;101307.19;5006755;28;45406;-68
2022/11/29 08:44:36;;;;;;;;;32.75;24.00;;;;;10.41;65.89;101333.25;5047301;28;45559;-63
2022/11/29 08:50:00;;;;;;;;;30.25;27.50;;;;;10.23;66.45;101313.00;5013425;28;45431;-63
2022/11/29 08:55:25;;;;;;;;;29.00;17.50;;;;;10.36;66.40;101349.13;5018354;28;45121;-65
2022/11/29 08:57:51;;;;;;;;;22.75;19.00;;;;;10.39;65.69;101343.88;5005907;28;45592;-67
2022/11/29 09:00:18;;;;;;;;;34.75;25.50;;;;;10.46;66.57;101353.03;5008710;28;45597;-66
2022/11/29 09:02:43;;;;;;;;;25.00;20.00;;;;;10.47;65.69;101362.88;4997204;28;45226;-64
2022/11/29 09:05:10;;;;;;;;;26.75;21.00;;;;;9.92;64.38;101266.47;5010058;28;45264;-66
2022/11/29 09:07:36;;;;;;;;;31.25;22.25;;;;;10.25;65.34;101348.69;5019105;28;45012;-65
2022/11/29 09:10:06;;;;;;;;;41.00;31.25;;;;;10.33;65.27;101365.03;5023462;28;45407;-62
2022/11/29 09:12:34;;;;;;;;;29.75;24.25;;;;;10.23;65.32;101355.75;5008357;28;45507;-64
2022/11/29 09:14:59;;;;;;;;;32.25;23.50;;;;;10.14;65.79;101350.03;5012498;28;45118;-63
2022/11/29 09:17:25;;;;;;;;;27.25;23.00;;;;;10.07;66.09;101346.22;5005432;28;45506;-65
2022/11/29 09:19:50;;;;;;;;;22.75;18.25;;;;;10.26;65.97;101373.63;5007775;28;45349;-64
2022/11/29 09:22:16;;;;;;;;;27.25;21.25;;;;;10.27;65.77;101370.13;5017245;28;45010;-64
2022/11/29 09:24:41;;;;;;;;;25.50;20.00;;;;;10.37;65.33;101380.31;5013403;28;45362;-64
2022/11/29 09:27:06;;;;;;;;;17.75;15.75;;;;;10.35;65.53;101384.69;5036194;28;45235;-68
2022/11/29 09:29:32;;;;;;;;;22.50;16.00;;;;;10.32;65.66;101409.53;5006422;28;45699;-65
2022/11/29 09:31:57;;;;;;;;;13.00;12.50;;;;;9.73;66.01;101296.91;5012033;28;45015;-67
2022/11/29 09:34:23;;;;;;;;;23.25;13.75;;;;;10.32;66.76;101404.19;5009493;28;45311;-67
2022/11/29 09:36:48;;;;;;;;;18.75;15.25;;;;;10.33;65.90;101398.00;5001622;28;45526;-65
2022/11/29 09:39:14;;;;;;;;;23.25;19.50;;;;;10.44;65.46;101410.84;4998719;28;46483;-65
2022/11/29 09:42:05;;;;;;;;;18.50;17.75;;;;;10.50;65.64;101413.75;4997114;28;45448;-66
2022/11/29 09:44:52;;;;;;;;;19.00;17.50;;;;;10.55;65.54;101421.94;4980439;28;45677;-63
2022/11/29 09:47:23;;;;;;;;;21.75;20.50;;;;;10.55;65.72;101416.59;5006437;28;45483;-64
2022/11/29 09:50:07;;;;;;;;;18.50;17.00;;;;;10.55;65.75;101419.28;4997433;28;47016;-64
2022/11/29 09:52:51;;;;;;;;;29.75;22.50;;;;;10.55;65.27;101413.94;4995591;28;45349;-67
2022/11/29 09:55:41;;;;;;;;;26.75;18.25;;;;;10.67;64.55;101425.97;4996377;28;45486;-61
2022/11/29 09:58:14;;;;;;;;;33.00;25.00;;;;;10.67;64.03;101425.97;5013899;28;45438;-64
2022/11/29 10:00:49;;;;;;;;;27.00;26.25;;;;;10.64;63.95;101423.19;4995844;28;46164;-64
2022/11/29 10:03:24;;;;;;;;;21.25;18.50;;;;;10.63;63.89;101439.16;4994208;28;45426;-64
2022/11/29 10:05:57;;;;;;;;;24.75;18.00;;;;;10.62;64.30;101450.69;4995671;28;45326;-63
2022/11/29 10:08:44;;;;;;;;;30.25;27.75;;;;;10.57;63.72;101433.59;4994945;28;45571;-64
2022/11/29 10:11:21;;;;;;;;;32.00;25.50;;;;;10.68;63.92;101458.94;4996396;28;45579;-64
2022/11/29 10:13:56;;;;;;;;;25.75;22.50;;;;;10.73;63.75;101456.47;5009466;28;45550;-64
2022/11/29 10:16:35;;;;;;;;;54.50;46.50;;;;;10.78;63.83;101444.16;4996497;28;45412;-63
2022/11/29 10:19:09;;;;;;;;;27.25;23.75;;;;;10.83;63.42;101454.16;4996024;28;45306;-63
2022/11/29 10:21:40;;;;;;;;;27.75;20.75;;;;;10.86;63.43;101450.72;4996009;28;45406;-69
2022/11/29 10:24:16;;;;;;;;;22.50;22.50;;;;;10.80;63.70;101440.69;4995694;28;45462;-64
2022/11/29 10:26:42;;;;;;;;;29.25;24.75;;;;;10.83;63.63;101445.25;4996365;28;45387;-65
2022/11/29 10:29:13;;;;;;;;;30.75;20.25;;;;;10.82;63.03;101438.06;4996481;28;45474;-68
2022/11/29 10:31:42;;;;;;;;;31.75;27.75;;;;;10.86;62.61;101454.28;5011618;28;46672;-65
2022/11/29 10:34:19;;;;;;;;;36.50;29.50;;;;;10.79;63.21;101433.53;5013375;28;45630;-63
2022/11/29 10:36:49;;;;;;;;;37.75;31.00;;;;;10.96;62.84;101459.97;5007225;28;45472;-63
2022/11/29 10:39:19;;;;;;;;;32.50;28.00;;;;;11.00;62.57;101467.22;5014542;28;45329;-63
2022/11/29 10:41:50;;;;;;;;;23.50;20.50;;;;;10.99;62.65;101452.06;5012879;28;47288;-65
2022/11/29 10:44:16;;;;;;;;;49.50;35.75;;;;;11.13;62.26;101460.56;5014160;28;45256;-63
2022/11/29 10:46:42;;;;;;;;;23.25;20.50;;;;;11.11;62.28;101448.91;5014628;28;45366;-63
2022/11/29 10:49:16;;;;;;;;;31.25;27.00;;;;;11.15;61.66;101462.47;5014473;28;45471;-62
2022/11/29 10:51:43;;;;;;;;;26.00;24.75;;;;;11.15;62.18;101459.78;5014017;28;45300;-64
2022/11/29 10:54:22;;;;;;;;;24.75;20.25;;;;;11.18;61.76;101464.31;5011890;28;45549;-64
2022/11/29 10:56:47;;;;;;;;;26.75;24.50;;;;;11.07;61.35;101450.56;5013865;28;45483;-66
2022/11/29 10:59:24;;;;;;;;;55.25;41.75;;;;;11.19;62.15;101459.03;5006590;28;45280;-65
2022/11/29 11:01:50;;;;;;;;;28.00;26.75;;;;;11.16;61.09;101456.22;5012946;28;45927;-65
2022/11/29 11:04:32;;;;;;;;;29.25;25.75;;;;;11.18;61.41;101457.19;5005644;28;45404;-62
2022/11/29 11:07:01;;;;;;;;;23.50;23.25;;;;;11.30;61.69;101467.44;5012716;28;45568;-62
2022/11/29 11:09:41;;;;;;;;;25.75;23.00;;;;;11.34;60.75;101469.34;5011039;28;45405;-69
2022/11/29 11:12:19;;;;;;;;;22.75;22.50;;;;;11.37;61.52;101460.53;4996098;28;45584;-67
2022/11/29 11:14:45;;;;;;;;;38.25;31.75;;;;;11.48;61.97;101472.47;4993109;28;45380;-65
2022/11/29 11:17:28;;;;;;;;;24.50;22.00;;;;;11.46;60.92;101474.19;4994537;28;45613;-65
2022/11/29 11:20:00;;;;;;;;;32.25;25.25;;;;;11.37;61.00;101457.84;5008732;28;45400;-65
2022/11/29 11:22:27;;;;;;;;;21.75;20.75;;;;;11.41;61.02;101474.03;5012328;28;45532;-65
2022/11/29 11:25:27;;;;;;;;;28.25;24.50;;;;;11.45;60.95;101472.41;5001759;28;45497;-58
2022/11/29 11:27:54;;;;;;;;;19.00;17.00;;;;;11.44;60.66;101462.53;5007457;28;45631;-63
2022/11/29 11:30:26;;;;;;;;;49.50;36.25;;;;;11.51;60.57;101477.03;5013037;28;45332;-62
2022/11/29 11:33:20;;;;;;;;;28.00;25.25;;;;;11.52;59.47;101471.75;5008419;28;45525;-66
2022/11/29 11:36:04;;;;;;;;;31.50;28.50;;;;;11.49;60.58;101471.63;5005902;28;45534;-62
2022/11/29 11:38:30;;;;;;;;;30.25;24.50;;;;;11.53;61.02;101464.63;5009401;28;45649;-61
2022/11/29 11:41:15;;;;;;;;;33.25;29.25;;;;;11.46;60.35;101438.53;5013764;28;45524;-62
2022/11/29 11:43:42;;;;;;;;;32.25;29.00;;;;;11.54;59.57;101450.38;5008470;28;45726;-64
2022/11/29 11:46:08;;;;;;;;;33.00;27.25;;;;;11.61;59.86;101466.72;5009912;28;45436;-62
2022/11/29 11:48:33;;;;;;;;;41.50;32.50;;;;;11.64;60.01;101463.22;5014055;28;45472;-65
2022/11/29 11:51:00;;;;;;;;;37.50;31.75;;;;;11.65;59.76;101457.03;5008292;28;47252;-65
2022/11/29 11:53:35;;;;;;;;;31.50;26.75;;;;;11.71;60.56;101467.91;5020991;28;45594;-60
2022/11/29 11:56:03;;;;;;;;;23.75;20.50;;;;;11.68;59.39;101451.78;5015254;28;45379;-63
2022/11/29 11:58:44;;;;;;;;;24.00;24.00;;;;;11.80;59.72;101467.31;5019723;28;45363;-62
2022/11/29 12:01:36;;;;;;;;;37.50;30.75;;;;;11.83;59.56;101471.84;5008637;28;45354;-63